CheckWX is a tool to help pilots better visualize weather data.  It is not intended as a substitute for an official pre-flight weather briefing.

07:51:56 UTC

CYMT METAR
Chapais Airport
Chibougamau, Canada
Current

52 mins ago

CYMT 210700Z AUTO 28003KT 9SM FEW043 BKN060 OVC076 05/02 A2998 RMK SLP165
Observed
Oct-21 @ 07:00 UTC
Wind
  • 280° at 3 KTS
Visibility
9 SM
Flight Rules
VFR
Cloud Levels
  • Few at 4,300' AGL
  • Broken at 6,000' AGL
  • Overcast at 7,600' AGL
Temperature
C / 41°F
Dewpoint
C / 36°F
Humidity
81%
Altimeter
29.98" Hg
Pressure
1015.22 hPa
Previous

2 hours ago

CYMT 210621Z AUTO 27004KT 9SM BKN055 BKN070 OVC085 05/02 A2997 RMK SLP163
Observed
Oct-21 @ 06:21 UTC
Wind
  • 270° at 4 KTS
Visibility
9 SM
Flight Rules
VFR
Cloud Levels
  • Broken at 5,500' AGL
  • Broken at 7,000' AGL
  • Overcast at 8,500' AGL
Temperature
C / 41°F
Dewpoint
C / 36°F
Humidity
81%
Altimeter
29.97" Hg
Pressure
1014.92 hPa
Previous

2 hours ago

CYMT 210604Z AUTO 24004KT 9SM -RA BKN055 BKN072 OVC083 05/02 A2997 RMK SLP161
Observed
Oct-21 @ 06:04 UTC
Wind
  • 240° at 4 KTS
Visibility
9 SM
Flight Rules
VFR
Conditions
Light Rain
Cloud Levels
  • Broken at 5,500' AGL
  • Broken at 7,200' AGL
  • Overcast at 8,300' AGL
Temperature
C / 41°F
Dewpoint
C / 36°F
Humidity
81%
Altimeter
29.97" Hg
Pressure
1014.92 hPa